Time;durP1;ratioP1;P1;durP2;ratioP2;P2;SDS_P1;SDS_P2;PMS_P1;PMS_P2;Temp;Humidity;BMP_temperature;BMP_pressure;BME280_temperature;BME280_humidity;BME280_pressure;Samples;Min_cycle;Max_cycle;Signal;HPM_P1;HPM_P2
2022/09/24 00:01:58;;;;;;;3.23;2.80;;;17.40;54.50;;;;;;4968370;28;20431;-75
2022/09/24 00:04:27;;;;;;;3.63;3.33;;;17.40;54.50;;;;;;4961324;28;20467;-73
2022/09/24 00:06:55;;;;;;;3.23;2.87;;;17.40;54.50;;;;;;4955227;28;20570;-74
2022/09/24 00:09:24;;;;;;;2.93;2.63;;;17.40;54.60;;;;;;4965847;28;20601;-73
2022/09/24 00:11:52;;;;;;;4.50;2.70;;;17.40;54.50;;;;;;4967730;28;20423;-72
2022/09/24 00:14:22;;;;;;;3.57;2.87;;;17.40;54.50;;;;;;4969048;28;20475;-72
2022/09/24 00:16:50;;;;;;;3.30;2.87;;;17.40;54.60;;;;;;4976826;28;20884;-73
2022/09/24 00:19:18;;;;;;;3.37;3.07;;;17.40;54.50;;;;;;4967249;28;20474;-73
2022/09/24 00:21:49;;;;;;;3.10;2.53;;;17.40;54.60;;;;;;4959111;28;20447;-73
2022/09/24 00:27:01;;;;;;;2.70;2.13;;;17.40;54.70;;;;;;4951430;28;20463;-74
2022/09/24 00:29:32;;;;;;;3.70;2.93;;;17.40;54.60;;;;;;4972428;28;20501;-73
2022/09/24 00:32:02;;;;;;;3.03;2.23;;;17.40;54.50;;;;;;4943792;28;20530;-74
2022/09/24 00:34:31;;;;;;;3.13;2.83;;;17.40;54.50;;;;;;4949755;28;20498;-74
2022/09/24 00:36:59;;;;;;;2.90;2.60;;;17.40;54.60;;;;;;4953132;28;20832;-73
2022/09/24 00:39:28;;;;;;;4.20;2.93;;;17.40;54.60;;;;;;4965435;28;20562;-73
2022/09/24 00:41:56;;;;;;;4.30;3.00;;;17.40;54.60;;;;;;4944172;28;20431;-73
2022/09/24 00:44:53;;;;;;;3.17;2.90;;;17.40;54.70;;;;;;4967757;28;20494;-73
2022/09/24 00:47:34;;;;;;;3.07;2.77;;;17.40;54.60;;;;;;4965517;28;20497;-73
2022/09/24 00:50:20;;;;;;;3.00;2.80;;;17.40;54.70;;;;;;4963045;28;20566;-68
2022/09/24 00:52:55;;;;;;;2.60;2.13;;;17.40;54.60;;;;;;4977373;28;21072;-69
2022/09/24 00:55:24;;;;;;;2.97;2.53;;;17.40;54.60;;;;;;4956481;28;20510;-68
2022/09/24 00:57:56;;;;;;;5.10;3.07;;;17.40;54.60;;;;;;4963604;28;20437;-68
2022/09/24 01:00:26;;;;;;;3.10;2.70;;;17.30;54.60;;;;;;4971276;28;20469;-68
2022/09/24 01:02:59;;;;;;;2.67;2.47;;;17.40;54.60;;;;;;4971065;28;20976;-68
2022/09/24 01:05:28;;;;;;;3.50;2.17;;;17.40;54.70;;;;;;4975130;28;20708;-68
2022/09/24 01:11:10;;;;;;;3.80;2.47;;;17.40;54.60;;;;;;4950027;28;20502;-72
2022/09/24 01:14:10;;;;;;;3.97;3.17;;;17.40;54.70;;;;;;4947889;28;20442;-72
2022/09/24 01:16:46;;;;;;;2.90;2.43;;;17.40;54.80;;;;;;4930897;29;20478;-71
2022/09/24 01:19:41;;;;;;;3.70;2.60;;;17.40;54.70;;;;;;4954557;28;20480;-70
2022/09/24 01:22:18;;;;;;;3.20;2.80;;;17.40;54.70;;;;;;4950123;28;20592;-72
2022/09/24 01:24:58;;;;;;;4.20;2.93;;;17.30;54.60;;;;;;4942892;28;20915;-72
2022/09/24 01:27:42;;;;;;;2.70;2.50;;;17.40;54.70;;;;;;4946781;28;20547;-72
2022/09/24 01:30:13;;;;;;;2.70;2.37;;;17.30;54.60;;;;;;4938451;28;20560;-70
2022/09/24 01:32:48;;;;;;;5.17;3.00;;;17.30;54.60;;;;;;4941238;28;20439;-72
2022/09/24 01:35:20;;;;;;;2.77;2.57;;;17.30;54.60;;;;;;4953985;28;20474;-70
2022/09/24 01:37:54;;;;;;;3.80;2.83;;;17.30;54.60;;;;;;4939298;28;20461;-72
2022/09/24 01:40:25;;;;;;;2.67;2.47;;;17.30;54.70;;;;;;4953137;28;20476;-72
2022/09/24 01:42:56;;;;;;;5.60;2.90;;;17.30;54.60;;;;;;4955216;28;20974;-72
2022/09/24 01:45:28;;;;;;;3.30;2.70;;;17.30;54.60;;;;;;4955430;28;20463;-72
2022/09/24 01:47:58;;;;;;;4.07;2.80;;;17.30;54.60;;;;;;4934471;29;20871;-72
2022/09/24 01:50:31;;;;;;;3.17;2.90;;;17.30;54.60;;;;;;4947695;28;21165;-72
2022/09/24 01:53:06;;;;;;;3.37;2.90;;;17.30;54.60;;;;;;4941478;28;20981;-72
2022/09/24 01:55:40;;;;;;;2.60;2.40;;;17.30;54.70;;;;;;4931148;28;20902;-72
2022/09/24 01:58:11;;;;;;;4.37;2.63;;;17.30;54.70;;;;;;4943205;28;20458;-72
2022/09/24 02:00:45;;;;;;;3.47;2.73;;;17.30;54.70;;;;;;4949433;28;20439;-72
2022/09/24 02:03:17;;;;;;;2.70;2.50;;;17.30;54.80;;;;;;4951912;29;20443;-72
2022/09/24 02:05:50;;;;;;;2.93;2.50;;;17.30;54.80;;;;;;4935168;29;20452;-72
2022/09/24 02:08:22;;;;;;;3.50;2.67;;;17.30;54.60;;;;;;4938369;29;20818;-72
2022/09/24 02:10:54;;;;;;;3.70;3.20;;;17.30;54.70;;;;;;4962285;28;20531;-72
2022/09/24 02:13:26;;;;;;;3.27;2.77;;;17.30;54.80;;;;;;4932187;29;20501;-72
2022/09/24 02:15:59;;;;;;;2.90;2.70;;;17.30;54.80;;;;;;4942258;28;21011;-72
2022/09/24 02:18:33;;;;;;;3.17;2.70;;;17.30;54.80;;;;;;4953984;28;20452;-72
2022/09/24 02:21:06;;;;;;;3.87;2.07;;;17.30;54.80;;;;;;4929021;29;20535;-72
2022/09/24 02:23:38;;;;;;;2.90;2.70;;;17.30;54.90;;;;;;4949323;28;20574;-72
2022/09/24 02:26:07;;;;;;;3.17;2.70;;;17.30;55.00;;;;;;4959735;28;20467;-72
2022/09/24 02:28:36;;;;;;;3.30;2.90;;;17.30;55.10;;;;;;4944166;29;20542;-72
2022/09/24 02:31:11;;;;;;;3.43;2.83;;;17.30;54.90;;;;;;4958630;28;20440;-72
2022/09/24 02:36:30;;;;;;;3.67;3.27;;;17.30;54.90;;;;;;4941396;29;20447;-72
2022/09/24 02:38:59;;;;;;;3.07;2.50;;;17.30;54.80;;;;;;4955024;28;21003;-72
2022/09/24 02:41:29;;;;;;;3.83;3.53;;;17.30;54.90;;;;;;4942039;29;20850;-72
2022/09/24 02:43:58;;;;;;;3.70;3.03;;;17.30;54.90;;;;;;4953619;28;20436;-72
2022/09/24 02:46:28;;;;;;;2.80;2.60;;;17.30;54.80;;;;;;4949020;28;20497;-72
2022/09/24 02:48:56;;;;;;;2.53;2.33;;;17.30;54.90;;;;;;4940954;28;20976;-72
2022/09/24 02:51:24;;;;;;;2.80;2.60;;;17.30;54.90;;;;;;4949351;28;20479;-72
2022/09/24 02:53:53;;;;;;;3.20;2.90;;;17.30;54.90;;;;;;4950373;28;20485;-72
2022/09/24 02:56:21;;;;;;;3.13;2.83;;;17.30;54.90;;;;;;4935786;28;20985;-72
2022/09/24 02:58:49;;;;;;;4.67;3.13;;;17.30;55.00;;;;;;4939323;28;20455;-72
2022/09/24 03:01:18;;;;;;;3.17;2.87;;;17.30;55.10;;;;;;4951087;28;20440;-72
2022/09/24 03:03:48;;;;;;;3.90;2.50;;;17.30;55.00;;;;;;4950532;28;20447;-72
2022/09/24 03:38:55;;;;;;;2.77;2.53;;;17.20;55.20;;;;;;4952215;28;20466;-68
2022/09/24 03:41:25;;;;;;;4.37;3.63;;;17.20;55.20;;;;;;4945680;28;20609;-67
2022/09/24 03:43:54;;;;;;;3.70;3.30;;;17.20;55.40;;;;;;4943576;29;20542;-67
2022/09/24 03:46:28;;;;;;;3.40;3.10;;;17.20;55.40;;;;;;4964370;28;20862;-67
2022/09/24 03:48:59;;;;;;;4.17;3.53;;;17.20;55.30;;;;;;4917584;28;20552;-67
2022/09/24 03:51:27;;;;;;;3.87;3.00;;;17.20;55.50;;;;;;4950791;28;20478;-66
2022/09/24 03:53:57;;;;;;;3.80;3.40;;;17.20;55.40;;;;;;4961332;28;20924;-66
2022/09/24 03:56:26;;;;;;;5.00;3.40;;;17.20;55.40;;;;;;4951508;28;21063;-68
2022/09/24 03:58:54;;;;;;;3.07;2.87;;;17.20;55.30;;;;;;4951808;28;20480;-74
2022/09/24 04:01:23;;;;;;;3.20;2.60;;;17.20;55.10;;;;;;4968426;28;20431;-74
2022/09/24 04:03:51;;;;;;;2.83;2.63;;;17.20;55.10;;;;;;4960239;28;20451;-67
2022/09/24 04:06:20;;;;;;;3.37;3.07;;;17.20;55.10;;;;;;4954133;28;20490;-68
2022/09/24 04:08:53;;;;;;;4.67;3.00;;;17.20;55.10;;;;;;4951981;28;20895;-68
2022/09/24 04:11:26;;;;;;;3.30;2.70;;;17.20;55.10;;;;;;4947869;28;20471;-68
2022/09/24 04:13:55;;;;;;;2.90;2.70;;;17.20;55.10;;;;;;4945379;28;20451;-68
2022/09/24 04:16:23;;;;;;;2.73;2.40;;;17.20;55.10;;;;;;4968174;28;20514;-68
2022/09/24 04:18:55;;;;;;;2.47;2.30;;;17.20;55.10;;;;;;4955745;28;20469;-65
2022/09/24 04:21:23;;;;;;;3.80;2.57;;;17.20;55.10;;;;;;4967416;28;20467;-67
2022/09/24 04:23:52;;;;;;;2.53;2.33;;;17.20;55.10;;;;;;4948918;28;21040;-67
2022/09/24 04:26:23;;;;;;;2.83;2.53;;;17.20;55.10;;;;;;4950330;28;20852;-68
2022/09/24 04:28:53;;;;;;;3.27;2.93;;;17.20;55.20;;;;;;4949792;28;20446;-73
2022/09/24 04:31:22;;;;;;;2.57;2.37;;;17.20;55.20;;;;;;4967104;28;21017;-69
2022/09/24 04:33:50;;;;;;;3.80;2.77;;;17.20;55.20;;;;;;4947317;28;20478;-68
2022/09/24 04:36:19;;;;;;;4.17;2.93;;;17.20;55.10;;;;;;4950348;28;20941;-66
2022/09/24 04:38:47;;;;;;;3.73;2.60;;;17.20;55.20;;;;;;4957724;28;20455;-68
2022/09/24 04:41:16;;;;;;;2.60;2.40;;;17.20;55.10;;;;;;4951412;28;20878;-67
2022/09/24 04:43:45;;;;;;;3.63;2.63;;;17.20;55.20;;;;;;4949610;28;20474;-67
2022/09/24 04:46:17;;;;;;;2.93;2.60;;;17.20;55.10;;;;;;4948223;28;20502;-67
2022/09/24 04:48:46;;;;;;;2.83;2.60;;;17.20;55.20;;;;;;4950697;28;20954;-68
2022/09/24 04:51:15;;;;;;;2.80;2.47;;;17.20;55.10;;;;;;4950695;28;20545;-67
2022/09/24 04:53:44;;;;;;;2.30;2.10;;;17.20;55.10;;;;;;4954339;28;20502;-68
2022/09/24 04:56:13;;;;;;;3.53;3.23;;;17.10;55.10;;;;;;4950278;28;20493;-68
2022/09/24 04:58:41;;;;;;;2.97;2.40;;;17.20;55.10;;;;;;4950000;28;20521;-67
2022/09/24 05:01:12;;;;;;;2.83;2.60;;;17.10;55.10;;;;;;4966245;28;21327;-68
2022/09/24 05:03:42;;;;;;;2.93;2.60;;;17.10;55.10;;;;;;4948837;28;20462;-65
2022/09/24 05:06:10;;;;;;;2.97;2.60;;;17.10;55.10;;;;;;4938479;28;20506;-68
2022/09/24 05:08:38;;;;;;;3.07;2.77;;;17.10;55.20;;;;;;4962218;28;20886;-66
2022/09/24 05:11:07;;;;;;;4.73;2.60;;;17.20;55.30;;;;;;4950332;28;21020;-68
2022/09/24 05:13:35;;;;;;;3.23;3.03;;;17.10;55.10;;;;;;4966800;28;20453;-68
2022/09/24 05:16:05;;;;;;;3.40;2.47;;;17.10;55.10;;;;;;4941543;28;20906;-68
2022/09/24 05:18:35;;;;;;;2.90;2.70;;;17.10;55.10;;;;;;4967692;28;20958;-67
2022/09/24 05:21:05;;;;;;;3.60;2.97;;;17.10;55.20;;;;;;4950486;28;20466;-69
2022/09/24 05:23:33;;;;;;;2.93;2.63;;;17.10;55.20;;;;;;4964286;28;20466;-67
2022/09/24 05:28:47;;;;;;;2.93;2.63;;;17.10;55.20;;;;;;4959730;28;20445;-67
2022/09/24 05:31:16;;;;;;;5.07;3.20;;;17.10;55.20;;;;;;4964767;28;20530;-67
2022/09/24 05:33:45;;;;;;;2.97;2.67;;;17.10;55.20;;;;;;4969729;28;20427;-66
2022/09/24 05:36:15;;;;;;;2.67;2.47;;;17.10;55.30;;;;;;4970201;28;21037;-67
2022/09/24 05:38:43;;;;;;;3.60;2.77;;;17.10;55.20;;;;;;4950817;28;20525;-68
2022/09/24 05:41:13;;;;;;;2.90;2.60;;;17.10;55.20;;;;;;4970655;28;20970;-67
2022/09/24 05:43:41;;;;;;;2.97;2.67;;;17.10;55.30;;;;;;4952802;28;20472;-67
2022/09/24 05:46:09;;;;;;;4.03;3.23;;;17.10;55.20;;;;;;4966521;28;20835;-67
2022/09/24 05:51:37;;;;;;;2.83;2.63;;;17.10;55.30;;;;;;4954508;28;21013;-69
2022/09/24 05:54:06;;;;;;;2.50;2.30;;;17.10;55.40;;;;;;4966495;28;21012;-68
2022/09/24 05:56:34;;;;;;;2.97;2.67;;;17.10;55.40;;;;;;4967445;28;20462;-67
2022/09/24 05:59:03;;;;;;;2.97;2.67;;;17.10;55.30;;;;;;4965144;28;20461;-69
2022/09/24 06:01:32;;;;;;;2.60;2.40;;;17.10;55.30;;;;;;4970456;28;20430;-68
2022/09/24 06:04:01;;;;;;;2.73;2.53;;;17.10;55.30;;;;;;4971287;28;20446;-69
2022/09/24 06:06:37;;;;;;;3.00;2.33;;;17.10;55.30;;;;;;4971153;28;20516;-69
2022/09/24 06:09:07;;;;;;;3.13;2.73;;;17.10;55.40;;;;;;4966601;28;20505;-69
2022/09/24 06:11:37;;;;;;;3.20;2.90;;;17.10;55.50;;;;;;4969953;28;20470;-69
2022/09/24 06:14:08;;;;;;;2.80;2.60;;;17.10;55.40;;;;;;4970303;28;20469;-68
2022/09/24 06:16:37;;;;;;;2.77;2.57;;;17.10;55.40;;;;;;4969191;28;20489;-69
2022/09/24 06:19:05;;;;;;;3.30;2.87;;;17.10;55.40;;;;;;4969734;28;20442;-69
2022/09/24 06:21:34;;;;;;;2.60;2.40;;;17.10;55.40;;;;;;4987880;28;20434;-69
2022/09/24 06:24:04;;;;;;;3.93;3.20;;;17.10;55.40;;;;;;4968869;28;20557;-69
2022/09/24 06:26:33;;;;;;;3.03;2.67;;;17.10;55.40;;;;;;4985999;28;20865;-69
2022/09/24 06:29:01;;;;;;;2.40;2.23;;;17.10;55.40;;;;;;4968679;28;20446;-68
2022/09/24 06:31:33;;;;;;;3.30;3.00;;;17.10;55.50;;;;;;4968556;28;20469;-68
2022/09/24 06:34:02;;;;;;;3.07;2.80;;;17.00;55.40;;;;;;4970841;28;20469;-69
2022/09/24 06:36:30;;;;;;;3.37;3.07;;;17.10;55.60;;;;;;4970746;28;20495;-67
2022/09/24 06:38:59;;;;;;;3.67;3.07;;;17.10;55.60;;;;;;4953908;28;20464;-67
2022/09/24 06:41:29;;;;;;;4.70;2.97;;;17.00;55.50;;;;;;4970272;28;20434;-67
2022/09/24 06:43:57;;;;;;;2.93;2.73;;;17.00;55.40;;;;;;4971217;28;20466;-68
2022/09/24 06:46:26;;;;;;;2.73;2.53;;;17.00;55.40;;;;;;4970620;28;20560;-69
2022/09/24 06:48:54;;;;;;;3.17;2.87;;;17.00;55.50;;;;;;4972177;28;20434;-69
2022/09/24 06:51:23;;;;;;;3.17;2.97;;;17.00;55.50;;;;;;4975593;28;21198;-68
2022/09/24 06:53:52;;;;;;;3.27;2.90;;;17.00;55.70;;;;;;4968075;28;20509;-69
2022/09/24 06:56:20;;;;;;;4.30;3.23;;;17.00;55.50;;;;;;4964278;28;20473;-69
2022/09/24 06:58:50;;;;;;;3.40;3.10;;;17.10;55.60;;;;;;4966191;28;20434;-69
2022/09/24 07:01:19;;;;;;;3.30;3.10;;;17.00;55.50;;;;;;4966447;28;20470;-67
2022/09/24 07:03:48;;;;;;;3.83;2.77;;;17.00;55.60;;;;;;4986896;28;20462;-69
2022/09/24 07:06:17;;;;;;;3.00;2.80;;;17.00;55.60;;;;;;4948339;28;20806;-69
2022/09/24 07:08:49;;;;;;;2.83;2.53;;;17.00;55.70;;;;;;4970406;28;20452;-69
2022/09/24 07:11:18;;;;;;;2.63;2.43;;;17.00;55.70;;;;;;4965843;28;20508;-69
2022/09/24 07:13:46;;;;;;;3.43;3.13;;;17.00;55.50;;;;;;4959138;28;20548;-69
2022/09/24 07:16:16;;;;;;;2.80;2.50;;;17.00;55.50;;;;;;4969607;28;20542;-69
2022/09/24 07:18:45;;;;;;;3.50;2.70;;;17.00;55.50;;;;;;4971546;28;20469;-69
2022/09/24 07:21:15;;;;;;;3.03;2.83;;;17.00;55.40;;;;;;4968240;28;20449;-69
2022/09/24 07:23:43;;;;;;;3.23;2.77;;;17.00;55.50;;;;;;4984845;28;20453;-69
2022/09/24 07:26:12;;;;;;;4.37;2.80;;;17.00;55.80;;;;;;4970298;28;20473;-69
2022/09/24 07:28:40;;;;;;;3.30;3.00;;;17.00;55.70;;;;;;4970778;28;20434;-69
2022/09/24 07:31:09;;;;;;;2.93;2.73;;;17.00;55.70;;;;;;4967332;28;20451;-69
2022/09/24 07:33:39;;;;;;;3.63;2.47;;;17.00;55.60;;;;;;4969204;28;20457;-69
2022/09/24 07:36:11;;;;;;;3.30;2.50;;;17.00;55.60;;;;;;4954491;28;20834;-69
2022/09/24 07:38:39;;;;;;;3.63;3.33;;;17.00;55.60;;;;;;4968407;28;20454;-69
2022/09/24 07:41:08;;;;;;;4.27;3.03;;;17.00;55.60;;;;;;4998452;23;20533;-73
2022/09/24 07:43:37;;;;;;;3.30;2.97;;;17.00;55.60;;;;;;4962369;28;20850;-72
2022/09/24 07:46:07;;;;;;;8.17;6.07;;;17.00;55.70;;;;;;4972242;28;20476;-72
2022/09/24 07:48:35;;;;;;;4.83;4.33;;;17.00;58.70;;;;;;4988259;28;20527;-73
2022/09/24 07:51:05;;;;;;;5.70;3.80;;;17.00;59.50;;;;;;4968962;28;20534;-72
2022/09/24 07:53:33;;;;;;;6.67;4.37;;;17.00;59.90;;;;;;4992374;28;20477;-72
2022/09/24 07:56:02;;;;;;;5.90;4.43;;;16.90;60.50;;;;;;4990910;28;20459;-73
2022/09/24 07:58:31;;;;;;;7.07;5.20;;;16.90;59.70;;;;;;4996033;28;20455;-72
2022/09/24 08:01:00;;;;;;;7.40;4.70;;;17.00;59.30;;;;;;5000694;28;20468;-73
2022/09/24 08:03:28;;;;;;;5.37;4.87;;;17.00;61.50;;;;;;4982476;28;20505;-72
2022/09/24 08:05:58;;;;;;;6.47;5.10;;;17.00;61.00;;;;;;4978867;28;20488;-73
2022/09/24 08:08:28;;;;;;;7.23;4.30;;;17.00;61.00;;;;;;4971520;28;20940;-72
2022/09/24 08:10:57;;;;;;;6.40;4.10;;;17.00;61.10;;;;;;4985270;28;20541;-72
2022/09/24 08:13:26;;;;;;;5.63;4.60;;;17.00;61.00;;;;;;4961214;28;20466;-73
2022/09/24 08:15:59;;;;;;;4.13;3.67;;;17.00;60.20;;;;;;4989925;28;20511;-72
2022/09/24 08:18:29;;;;;;;7.20;3.87;;;17.00;60.00;;;;;;4998594;28;20448;-74
2022/09/24 08:20:58;;;;;;;6.17;4.27;;;17.00;59.50;;;;;;4996426;28;20456;-72
2022/09/24 08:23:28;;;;;;;3.80;3.40;;;17.00;59.30;;;;;;4999469;28;20523;-73
2022/09/24 08:25:57;;;;;;;4.30;3.70;;;17.00;59.30;;;;;;4999665;28;20502;-73
2022/09/24 08:28:27;;;;;;;7.07;4.50;;;17.00;60.00;;;;;;4989927;28;20822;-71
2022/09/24 08:30:59;;;;;;;4.80;3.57;;;17.00;59.80;;;;;;4980161;28;20872;-71
2022/09/24 08:33:27;;;;;;;4.20;3.80;;;17.00;59.80;;;;;;4989691;28;20473;-73
2022/09/24 08:35:58;;;;;;;6.47;4.73;;;17.00;59.30;;;;;;4979630;28;20492;-71
2022/09/24 08:38:28;;;;;;;5.17;3.60;;;17.00;59.70;;;;;;4990701;28;20438;-72
2022/09/24 08:41:03;;;;;;;5.03;3.87;;;17.00;59.10;;;;;;4992394;28;20565;-73
2022/09/24 08:43:42;;;;;;;5.67;4.17;;;17.00;59.20;;;;;;4972984;28;20475;-72
2022/09/24 08:49:04;;;;;;;4.77;3.83;;;17.00;59.20;;;;;;4989391;28;20555;-73
2022/09/24 08:51:50;;;;;;;5.57;3.70;;;17.00;59.00;;;;;;4995658;28;20442;-73
2022/09/24 08:54:23;;;;;;;3.83;3.53;;;17.00;58.90;;;;;;4984473;28;20453;-73
2022/09/24 08:56:55;;;;;;;2.70;2.50;;;17.00;58.80;;;;;;4988866;28;20468;-73
2022/09/24 08:59:30;;;;;;;4.23;3.77;;;17.00;58.60;;;;;;4988376;28;20539;-73
2022/09/24 09:02:20;;;;;;;3.27;2.97;;;17.00;58.60;;;;;;4976370;28;20552;-73
2022/09/24 09:04:59;;;;;;;4.50;3.70;;;17.00;58.60;;;;;;4997580;28;20552;-72
2022/09/24 09:07:31;;;;;;;3.63;3.03;;;17.00;58.90;;;;;;4988507;28;20823;-72
2022/09/24 09:10:04;;;;;;;3.80;3.50;;;17.00;58.60;;;;;;4978565;28;20986;-72
2022/09/24 09:12:37;;;;;;;2.63;2.43;;;17.00;58.70;;;;;;4979913;28;20468;-73
2022/09/24 09:15:11;;;;;;;4.30;3.47;;;17.00;58.60;;;;;;4993234;28;20497;-73
2022/09/24 09:17:45;;;;;;;4.00;3.60;;;17.00;58.60;;;;;;4996185;28;20532;-73
2022/09/24 09:20:18;;;;;;;3.83;3.40;;;17.00;58.60;;;;;;4979761;28;20480;-73
2022/09/24 09:22:49;;;;;;;3.83;3.40;;;17.00;58.30;;;;;;4998474;28;20449;-72
2022/09/24 09:25:22;;;;;;;4.30;3.90;;;17.00;59.00;;;;;;5006364;28;20850;-73
2022/09/24 09:27:55;;;;;;;4.07;3.57;;;17.00;58.30;;;;;;4989288;28;20441;-73
2022/09/24 09:30:24;;;;;;;4.00;3.60;;;17.00;58.60;;;;;;4982453;28;20483;-71
2022/09/24 09:33:18;;;;;;;5.10;3.07;;;17.00;58.30;;;;;;4984159;28;20465;-73
2022/09/24 09:35:52;;;;;;;4.03;3.30;;;17.00;58.10;;;;;;4977687;28;20477;-72
2022/09/24 09:38:25;;;;;;;4.43;3.30;;;17.10;58.40;;;;;;4992558;28;20809;-73
2022/09/24 09:41:03;;;;;;;5.53;4.10;;;17.00;58.10;;;;;;4988193;28;20843;-71
2022/09/24 09:43:32;;;;;;;4.33;3.70;;;17.00;58.10;;;;;;4982227;28;20557;-73
2022/09/24 09:46:10;;;;;;;5.23;4.50;;;17.00;58.20;;;;;;4985505;28;20558;-73
2022/09/24 09:48:45;;;;;;;6.10;3.50;;;17.00;58.10;;;;;;4990600;28;20540;-72
2022/09/24 09:51:19;;;;;;;3.43;3.07;;;17.00;58.10;;;;;;5003153;28;20536;-73
2022/09/24 09:53:57;;;;;;;3.60;3.30;;;17.00;58.10;;;;;;4990156;28;20473;-73
2022/09/24 09:56:30;;;;;;;4.33;3.53;;;17.00;58.00;;;;;;4985242;28;20860;-74
2022/09/24 09:59:06;;;;;;;4.20;2.90;;;17.00;58.10;;;;;;4973974;28;20458;-71
2022/09/24 10:01:36;;;;;;;4.10;3.70;;;17.00;57.80;;;;;;4990081;28;20460;-73
2022/09/24 10:04:05;;;;;;;4.47;3.30;;;17.00;57.90;;;;;;4997844;28;20468;-73
2022/09/24 10:06:35;;;;;;;4.40;3.87;;;17.00;58.10;;;;;;4958400;28;20507;-71
2022/09/24 10:09:11;;;;;;;3.60;3.17;;;17.00;58.10;;;;;;4991350;28;20487;-73
2022/09/24 10:11:42;;;;;;;3.63;3.33;;;17.00;58.00;;;;;;5000768;28;20872;-72
2022/09/24 10:14:12;;;;;;;4.30;3.63;;;17.00;57.90;;;;;;4984795;28;20484;-72
2022/09/24 10:16:42;;;;;;;3.30;2.47;;;17.00;58.10;;;;;;4980080;28;20501;-73
2022/09/24 10:19:22;;;;;;;4.10;3.50;;;17.00;58.00;;;;;;4981906;28;20452;-71
2022/09/24 10:21:51;;;;;;;3.70;3.23;;;17.00;57.90;;;;;;4982653;28;20480;-71
2022/09/24 10:24:23;;;;;;;3.17;2.87;;;17.00;57.90;;;;;;4997998;28;20537;-74
2022/09/24 10:26:56;;;;;;;3.60;3.30;;;17.00;57.90;;;;;;4997617;28;20464;-73
2022/09/24 10:32:16;;;;;;;3.70;3.40;;;17.00;57.80;;;;;;4987506;28;20545;-72
2022/09/24 10:34:55;;;;;;;5.60;3.53;;;17.00;57.80;;;;;;4983134;28;20544;-71
2022/09/24 10:37:23;;;;;;;3.77;3.43;;;16.90;57.60;;;;;;4975398;28;20892;-72
2022/09/24 10:39:59;;;;;;;3.80;3.47;;;17.00;57.80;;;;;;4993112;28;20854;-74
2022/09/24 10:42:30;;;;;;;4.30;3.53;;;17.00;57.70;;;;;;4990794;28;20483;-73
2022/09/24 10:45:02;;;;;;;3.50;2.73;;;17.00;57.70;;;;;;4990194;28;20645;-72
2022/09/24 10:47:39;;;;;;;4.30;3.47;;;17.00;57.70;;;;;;4979442;28;20899;-74
2022/09/24 10:50:23;;;;;;;4.33;3.70;;;16.90;57.70;;;;;;4984594;28;20464;-72
2022/09/24 10:52:54;;;;;;;3.93;3.40;;;17.00;57.90;;;;;;4975576;28;20469;-73
2022/09/24 10:55:44;;;;;;;2.63;2.43;;;17.00;57.80;;;;;;4997541;28;20495;-72
2022/09/24 10:58:32;;;;;;;3.50;3.20;;;16.90;57.60;;;;;;4970376;28;20528;-72
2022/09/24 11:01:11;;;;;;;3.67;3.30;;;16.90;57.60;;;;;;4967455;28;20564;-71
2022/09/24 11:04:11;;;;;;;3.93;3.63;;;16.90;57.70;;;;;;4985971;28;20450;-71
2022/09/24 11:06:50;;;;;;;3.87;3.50;;;16.90;57.60;;;;;;4971598;28;21060;-71
2022/09/24 11:09:27;;;;;;;3.80;3.43;;;16.90;57.60;;;;;;4975758;28;20474;-70
2022/09/24 11:12:04;;;;;;;4.93;4.10;;;16.90;57.60;;;;;;4976502;28;20453;-71
2022/09/24 11:14:49;;;;;;;5.00;3.20;;;16.90;57.70;;;;;;4989792;28;21090;-73
2022/09/24 11:17:31;;;;;;;3.90;3.60;;;16.90;57.80;;;;;;4987901;28;21151;-73
2022/09/24 11:20:18;;;;;;;2.77;2.57;;;16.90;57.70;;;;;;4976477;28;20497;-72
2022/09/24 11:23:00;;;;;;;3.20;2.90;;;16.90;57.60;;;;;;4974990;28;20464;-74
2022/09/24 11:25:38;;;;;;;3.00;2.80;;;16.90;57.70;;;;;;4986965;28;20568;-73
2022/09/24 11:31:41;;;;;;;3.20;2.90;;;16.90;57.70;;;;;;4986376;28;20565;-73
2022/09/24 11:34:26;;;;;;;3.30;3.00;;;16.90;57.60;;;;;;4991653;28;20523;-72
2022/09/24 11:37:11;;;;;;;4.87;4.30;;;16.90;57.50;;;;;;4964491;28;20505;-71
2022/09/24 11:40:03;;;;;;;3.30;2.97;;;16.90;57.40;;;;;;4993163;28;20538;-73
2022/09/24 11:42:42;;;;;;;3.87;3.20;;;16.90;57.40;;;;;;4988971;28;20444;-72
2022/09/24 11:45:36;;;;;;;3.30;2.50;;;16.90;57.50;;;;;;4987281;28;20480;-73
2022/09/24 11:48:23;;;;;;;3.00;2.80;;;16.90;57.40;;;;;;4977066;28;20425;-73
2022/09/24 11:51:00;;;;;;;3.17;2.87;;;16.90;57.50;;;;;;4965397;28;20527;-74
2022/09/24 11:53:39;;;;;;;3.50;3.20;;;16.90;57.40;;;;;;4991182;28;20508;-73
2022/09/24 11:56:15;;;;;;;3.37;3.07;;;16.90;57.30;;;;;;4975571;28;20602;-73
2022/09/24 11:58:50;;;;;;;3.67;3.27;;;17.00;57.50;;;;;;4972639;28;20526;-72
2022/09/24 12:01:23;;;;;;;3.13;2.80;;;17.00;57.60;;;;;;4984495;28;20441;-73
2022/09/24 12:03:58;;;;;;;4.90;2.87;;;16.90;57.50;;;;;;4979588;28;20453;-72
2022/09/24 12:06:33;;;;;;;2.93;2.67;;;16.90;57.30;;;;;;4979958;28;20573;-71
2022/09/24 12:09:09;;;;;;;3.13;2.83;;;16.90;57.40;;;;;;4983024;28;20468;-72
2022/09/24 12:11:44;;;;;;;3.70;3.03;;;16.90;57.30;;;;;;4998873;28;20456;-73
2022/09/24 12:14:18;;;;;;;3.50;3.20;;;16.90;57.30;;;;;;4999931;28;20541;-73
2022/09/24 12:16:52;;;;;;;2.67;2.30;;;16.90;57.30;;;;;;4976454;28;20831;-73
2022/09/24 12:19:25;;;;;;;2.67;2.40;;;17.00;57.50;;;;;;5002099;28;20576;-74
2022/09/24 12:21:57;;;;;;;3.17;2.87;;;16.90;57.40;;;;;;4986922;28;20477;-71
2022/09/24 12:24:30;;;;;;;3.10;2.60;;;16.90;57.30;;;;;;4980987;28;20523;-72
2022/09/24 12:27:04;;;;;;;2.50;2.30;;;16.90;57.20;;;;;;4987392;28;20470;-73
2022/09/24 12:32:56;;;;;;;3.13;2.83;;;17.00;57.70;;;;;;4980172;28;20504;-74
2022/09/24 12:35:47;;;;;;;3.60;3.30;;;16.90;57.40;;;;;;4978318;28;20567;-72
2022/09/24 12:38:19;;;;;;;3.70;3.20;;;17.00;57.70;;;;;;4973770;28;20549;-73
2022/09/24 12:41:23;;;;;;;3.20;2.87;;;16.90;57.60;;;;;;4999313;28;20544;-73
2022/09/24 12:43:58;;;;;;;3.40;3.10;;;16.90;57.50;;;;;;5000232;28;20492;-73
2022/09/24 12:46:31;;;;;;;3.73;3.33;;;17.00;57.50;;;;;;4967857;28;20501;-72
2022/09/24 12:49:00;;;;;;;3.10;2.70;;;16.90;57.40;;;;;;4983113;28;20463;-73
2022/09/24 12:51:38;;;;;;;2.53;2.33;;;17.00;57.50;;;;;;5006825;28;20451;-74
2022/09/24 12:54:19;;;;;;;3.80;3.50;;;17.00;57.50;;;;;;4991893;28;20468;-73
2022/09/24 12:56:48;;;;;;;3.30;3.00;;;17.00;57.50;;;;;;4978349;28;21059;-72
2022/09/24 12:59:27;;;;;;;3.33;2.83;;;17.00;57.60;;;;;;4974209;28;20473;-73
2022/09/24 13:02:06;;;;;;;3.20;2.30;;;17.00;57.50;;;;;;4984233;28;20444;-72
2022/09/24 13:04:35;;;;;;;3.40;3.10;;;17.00;57.50;;;;;;4976837;28;20570;-72
2022/09/24 13:07:33;;;;;;;2.73;2.53;;;17.00;57.50;;;;;;4998415;28;20828;-73
2022/09/24 13:10:21;;;;;;;3.37;3.07;;;17.00;57.40;;;;;;4973876;28;20474;-74
2022/09/24 13:12:50;;;;;;;3.60;3.30;;;17.00;57.50;;;;;;4990189;28;20642;-72
2022/09/24 13:15:32;;;;;;;2.57;2.37;;;17.00;57.40;;;;;;4976049;28;20965;-73
2022/09/24 13:18:20;;;;;;;3.30;2.77;;;16.90;57.30;;;;;;4986711;28;20457;-71
2022/09/24 13:21:00;;;;;;;6.30;3.70;;;17.00;57.40;;;;;;4997470;28;20505;-74
2022/09/24 13:23:44;;;;;;;3.50;3.20;;;17.00;59.10;;;;;;4980625;28;20512;-73
2022/09/24 13:26:25;;;;;;;3.60;3.07;;;17.00;57.50;;;;;;5000398;28;20543;-73
2022/09/24 13:28:57;;;;;;;2.73;2.53;;;17.00;57.60;;;;;;4972925;28;20484;-73
2022/09/24 13:31:39;;;;;;;3.23;2.93;;;17.00;57.40;;;;;;4970430;28;20495;-72
2022/09/24 13:34:19;;;;;;;3.77;3.03;;;17.00;57.50;;;;;;4990200;28;20616;-74
2022/09/24 13:36:56;;;;;;;3.10;2.90;;;17.00;57.40;;;;;;4988753;28;20476;-73
2022/09/24 13:39:33;;;;;;;2.80;2.60;;;17.00;57.50;;;;;;4995369;28;20472;-72
2022/09/24 13:42:08;;;;;;;2.57;2.37;;;17.00;57.40;;;;;;4971388;23;20505;-70
2022/09/24 13:44:39;;;;;;;2.80;2.60;;;17.00;57.40;;;;;;4964938;28;21050;-71
2022/09/24 13:47:14;;;;;;;3.50;3.20;;;17.00;57.30;;;;;;4944358;29;20950;-71
2022/09/24 13:49:46;;;;;;;2.57;2.37;;;17.00;57.50;;;;;;4959509;28;21001;-71
2022/09/24 13:52:26;;;;;;;3.20;2.90;;;17.00;57.50;;;;;;4945789;28;20858;-71
2022/09/24 13:55:00;;;;;;;3.83;3.10;;;17.00;57.30;;;;;;4941847;28;20526;-72
2022/09/24 13:57:29;;;;;;;6.60;5.03;;;17.00;57.80;;;;;;4970175;28;21131;-72
2022/09/24 14:00:14;;;;;;;8.23;7.40;;;17.00;58.50;;;;;;4948251;28;20569;-71
2022/09/24 14:02:51;;;;;;;7.10;4.40;;;17.00;60.90;;;;;;4960523;28;20467;-71
2022/09/24 14:05:20;;;;;;;3.70;3.40;;;17.00;59.60;;;;;;4944325;28;20467;-72
2022/09/24 14:07:58;;;;;;;4.70;4.03;;;17.00;58.70;;;;;;4952760;28;20461;-71
2022/09/24 14:10:29;;;;;;;5.80;4.33;;;17.00;58.50;;;;;;4950541;28;20470;-72
2022/09/24 14:13:02;;;;;;;4.90;4.30;;;17.00;58.60;;;;;;4958949;28;20639;-71
2022/09/24 14:15:30;;;;;;;6.37;4.20;;;17.00;58.60;;;;;;4942244;28;20463;-71
2022/09/24 14:18:00;;;;;;;4.70;4.20;;;17.00;58.60;;;;;;4967574;28;20435;-71